| Record Date MM/DD/YYYY | Record Time HH:MM:SS | Record Julian Date NNN day of the year | Air Temperature Max (Degrees Fahrenheit F) | Time Max Air Temperature HH:MM:SS This is the time of max air temp for the prior hour interval listed for record [Time]. | Air Temperature Min (Degrees Fahrenheit F) | Time Min Air Temperature HH:MM:SS This is the time of min air temp for the prior hour interval listed for record [Time]. | Air Temperature Observed (Degrees Fahrenheit F) This is an instantaneous reading at the record [Time]. | Relative Humidity Max (Percent) | Time Max Relative Humidity HH:MM:SS This is the time of max relative humidity for the prior hour interval listed for record [Time]. | Relative Humidity Min (Percent) | Time Min Relative Humidity HH:MM:SS This is the time of min relative humidity for the prior hour interval listed for record [Time]. | Relative Humidity Observed (Percent) This is an instantaneous reading at the record [Time]. | Precipitation (Inches n.nn) rain fall that occurred during the prior hour interval listed for record [Time]. | Wind Speed (Miles Per Hour) Resultant Speed that occurred during the prior hour interval listed for record [Time]. | Wind Direction (Degrees) Resultant Direction that occurred during the prior hour interval listed for record [Time]. | Solar Radiation (Langley's) that occurred during the prior hour interval listed for record [Time]. | Soil Temperature Average at 2 inch depth (Degrees Fahrenheit F) that occurred during the prior hour interval listed for record [Time]. | Soil Temperature Observed at 2 inch depth (Degrees Fahrenheit F) This is an instantaneous reading at the record [Time]. | Soil Temperature Average at 4 inch depth (Degrees Fahrenheit F) that occurred during the prior hour interval listed for record [Time]. | Soil Temperature Observed at 4 inch depth (Degrees Fahrenheit F) This is an instantaneous reading at the record [Time]. |
|---|---|---|---|---|---|---|---|---|---|---|---|---|---|---|---|---|---|---|---|---|
| 04/29/2026 | 0:00:00 | 119 | 73 | 23:01:02 | 73 | 23:41:03 | 73 | 94 | 23:51:05 | 93 | 23:00:03 | 93.8 | 0 | 6.6 | 183 | 0 | 73 | 73 | 73 | 73 |
| 04/29/2026 | 1:00:00 | 119 | 73 | 0:06:04 | 73 | 0:51:02 | 73 | 94 | 0:02:04 | 93 | 1:00:00 | 93.1 | 0 | 6.1 | 181 | 0 | 73 | 72 | 73 | 72 |
| 04/29/2026 | 2:00:00 | 119 | 73 | 1:07:00 | 72 | 1:59:05 | 72 | 93 | 1:00:02 | 93 | 1:15:03 | 92.8 | 0 | 5.5 | 189 | 0 | 72 | 72 | 72 | 72 |
| 04/29/2026 | 3:00:00 | 119 | 72 | 2:26:04 | 72 | 2:58:04 | 72 | 94 | 2:59:04 | 93 | 2:00:01 | 93.7 | 0 | 3.8 | 203 | 0 | 72 | 72 | 72 | 72 |
| 04/29/2026 | 4:00:00 | 119 | 72 | 3:00:03 | 72 | 3:58:02 | 72 | 94 | 3:59:02 | 94 | 3:00:00 | 94.4 | 0 | 5.1 | 182 | 0 | 72 | 72 | 72 | 72 |
| 04/29/2026 | 5:00:00 | 119 | 72 | 4:59:03 | 72 | 4:01:00 | 72 | 95 | 4:03:00 | 94 | 4:59:04 | 93.8 | 0 | 6.9 | 195 | 0 | 72 | 72 | 72 | 72 |
| 04/29/2026 | 6:00:00 | 119 | 72 | 5:59:01 | 72 | 5:22:00 | 72 | 94 | 5:46:02 | 93 | 5:05:01 | 94.2 | 0 | 6.2 | 199 | 0 | 72 | 72 | 72 | 72 |
| 04/29/2026 | 7:00:00 | 119 | 74 | 6:58:05 | 72 | 6:01:02 | 74 | 94 | 6:00:02 | 91 | 6:59:03 | 91 | 0 | 5.9 | 188 | 9 | 72 | 72 | 72 | 72 |
| 04/29/2026 | 8:00:00 | 119 | 78 | 7:59:05 | 74 | 7:00:01 | 78 | 91 | 7:03:05 | 85 | 7:56:01 | 87.8 | 0 | 7.1 | 195 | 28 | 72 | 72 | 72 | 72 |
| 04/29/2026 | 9:00:00 | 119 | 79 | 8:29:03 | 77 | 8:09:00 | 78 | 88 | 8:10:04 | 84 | 8:13:05 | 87 | 0 | 7.9 | 207 | 34 | 72 | 72 | 72 | 72 |
| 04/29/2026 | 10:00:00 | 119 | 81 | 9:55:05 | 77 | 9:13:00 | 80 | 88 | 9:03:04 | 80 | 9:58:05 | 83.1 | 0 | 6.7 | 206 | 36 | 72 | 73 | 72 | 72 |
| 04/29/2026 | 11:00:00 | 119 | 83 | 10:42:03 | 80 | 10:02:03 | 83 | 85 | 10:05:05 | 76 | 10:40:02 | 81.8 | 0 | 6.6 | 209 | 55 | 73 | 73 | 72 | 73 |
| 04/29/2026 | 12:00:00 | 119 | 84 | 11:04:03 | 80 | 11:59:04 | 80 | 84 | 11:00:03 | 76 | 11:30:05 | 82.9 | 0 | 6.9 | 210 | 35 | 74 | 74 | 73 | 73 |
| 04/29/2026 | 13:00:00 | 119 | 80 | 12:00:02 | 78 | 12:50:05 | 78 | 89 | 12:52:04 | 83 | 12:01:03 | 89 | 0 | 4.0 | 247 | 5 | 74 | 74 | 73 | 73 |
| 04/29/2026 | 14:00:00 | 119 | 78 | 13:01:01 | 67 | 13:59:01 | 67 | 96 | 13:59:03 | 80 | 13:08:04 | 96.2 | 0.05 | 8.8 | 338 | 3 | 74 | 74 | 73 | 73 |
| 04/29/2026 | 15:00:00 | 119 | 69 | 14:42:04 | 67 | 14:11:00 | 69 | 99 | 15:00:00 | 94 | 14:10:05 | 98.7 | 1.02 | 6.0 | 335 | 0 | 73 | 73 | 73 | 73 |
| 04/29/2026 | 16:00:00 | 119 | 69 | 15:01:04 | 67 | 15:42:00 | 67 | 100 | 15:26:00 | 99 | 15:00:00 | 100 | 0.35 | 3.6 | 310 | 0 | 72 | 72 | 72 | 72 |
| 04/29/2026 | 17:00:00 | 119 | 67 | 16:13:03 | 66 | 16:39:01 | 67 | 100 | 16:00:00 | 100 | 16:00:00 | 100 | 0.09 | 4.6 | 353 | 3 | 72 | 72 | 72 | 72 |
| 04/29/2026 | 18:00:00 | 119 | 67 | 17:08:05 | 67 | 17:57:03 | 67 | 100 | 17:00:00 | 100 | 17:00:00 | 100 | 0.02 | 3.7 | 154 | 2 | 72 | 71 | 72 | 72 |
| 04/29/2026 | 19:00:00 | 119 | 67 | 18:02:00 | 66 | 18:57:02 | 66 | 100 | 18:00:00 | 100 | 18:00:00 | 100 | 0 | 4.9 | 170 | 1 | 71 | 71 | 72 | 72 |
| 04/29/2026 | 20:00:00 | 119 | 67 | 20:00:00 | 66 | 19:01:02 | 67 | 100 | 19:00:00 | 100 | 19:00:00 | 100 | 0.03 | 3.3 | 286 | 0 | 71 | 71 | 72 | 71 |
| 04/29/2026 | 21:00:00 | 119 | 67 | 20:00:00 | 66 | 20:59:03 | 66 | 100 | 20:00:00 | 100 | 20:00:00 | 100 | 0.03 | 2.8 | 127 | 0 | 71 | 71 | 71 | 71 |
| 04/29/2026 | 22:00:00 | 119 | 67 | 21:00:04 | 66 | 21:47:01 | 66 | 100 | 21:00:00 | 100 | 21:00:00 | 100 | 0.01 | 5.0 | 150 | 0 | 71 | 71 | 71 | 71 |
| 04/29/2026 | 23:00:00 | 119 | 66 | 22:29:01 | 66 | 22:50:00 | 66 | 100 | 22:00:00 | 100 | 22:51:05 | 100 | 0 | 4.4 | 190 | 0 | 71 | 71 | 71 | 71 |
| 04/30/2026 | 0:00:00 | 120 | 66 | 23:31:01 | 66 | 23:02:03 | 66 | 100 | 23:00:00 | 100 | 23:57:02 | 99.6 | 0 | 4.0 | 236 | 0 | 71 | 71 | 71 | 71 |
| 04/30/2026 | 1:00:00 | 120 | 66 | 0:04:03 | 66 | 0:13:02 | 66 | 100 | 0:04:03 | 99 | 0:51:04 | 99.4 | 0.01 | 3.2 | 265 | 0 | 71 | 71 | 71 | 71 |
| 04/30/2026 | 2:00:00 | 120 | 66 | 1:00:01 | 66 | 1:27:03 | 66 | 100 | 1:35:05 | 99 | 1:27:03 | 99.4 | 0.01 | 2.8 | 289 | 0 | 71 | 71 | 71 | 71 |
| 04/30/2026 | 3:00:00 | 120 | 66 | 2:11:02 | 66 | 2:01:02 | 66 | 100 | 2:10:04 | 99 | 2:44:04 | 99.4 | 0 | 3.7 | 331 | 0 | 71 | 71 | 71 | 71 |
| 04/30/2026 | 4:00:00 | 120 | 66 | 3:39:02 | 66 | 3:59:04 | 66 | 100 | 3:40:01 | 99 | 3:27:05 | 99.5 | 0.41 | 2.6 | 316 | 0 | 71 | 71 | 71 | 71 |
| 04/30/2026 | 5:00:00 | 120 | 66 | 4:00:02 | 64 | 4:52:02 | 64 | 100 | 4:52:04 | 99 | 4:05:00 | 100 | 0.65 | 3.3 | 351 | 0 | 70 | 70 | 71 | 70 |
| 04/30/2026 | 6:00:00 | 120 | 64 | 5:24:01 | 64 | 5:54:04 | 64 | 100 | 5:00:00 | 100 | 5:00:00 | 100 | 0.09 | 1.3 | 0 | 0 | 70 | 70 | 70 | 70 |
| 04/30/2026 | 7:00:00 | 120 | 64 | 6:00:00 | 62 | 6:56:04 | 62 | 100 | 6:00:00 | 100 | 6:00:00 | 100 | 0.01 | 6.4 | 11 | 2 | 69 | 69 | 70 | 70 |
| 04/30/2026 | 8:00:00 | 120 | 62 | 7:05:02 | 61 | 7:58:03 | 61 | 100 | 7:00:00 | 100 | 7:00:00 | 100 | 0.33 | 5.6 | 24 | 3 | 69 | 69 | 70 | 70 |
| 04/30/2026 | 9:00:00 | 120 | 62 | 8:08:04 | 60 | 8:49:05 | 60 | 100 | 8:00:00 | 100 | 8:43:05 | 99.9 | 0.33 | 7.8 | 34 | 6 | 69 | 69 | 70 | 70 |
| 04/30/2026 | 10:00:00 | 120 | 61 | 9:52:05 | 60 | 9:31:00 | 60 | 100 | 9:00:05 | 100 | 9:09:02 | 100 | 0.15 | 6.1 | 44 | 8 | 69 | 68 | 70 | 69 |
| 04/30/2026 | 11:00:00 | 120 | 61 | 10:41:00 | 60 | 10:13:01 | 61 | 100 | 10:00:00 | 100 | 10:57:04 | 99.9 | 0.08 | 5.3 | 44 | 9 | 68 | 68 | 69 | 69 |
| 04/30/2026 | 12:00:00 | 120 | 62 | 11:44:02 | 60 | 11:05:01 | 62 | 100 | 11:18:00 | 99 | 11:55:03 | 99 | 0 | 5.3 | 40 | 20 | 68 | 68 | 69 | 69 |
| 04/30/2026 | 13:00:00 | 120 | 62 | 12:02:03 | 61 | 12:13:00 | 62 | 99 | 12:02:03 | 97 | 12:59:03 | 97 | 0 | 5.5 | 53 | 13 | 68 | 68 | 69 | 69 |
| 04/30/2026 | 14:00:00 | 120 | 63 | 13:51:00 | 62 | 13:00:00 | 63 | 98 | 13:51:00 | 97 | 13:19:00 | 97.4 | 0.05 | 2.8 | 63 | 10 | 68 | 68 | 69 | 69 |
| 04/30/2026 | 15:00:00 | 120 | 63 | 14:14:04 | 62 | 14:27:02 | 63 | 98 | 14:55:05 | 97 | 14:00:03 | 98.1 | 0.01 | 3.4 | 29 | 13 | 68 | 68 | 69 | 69 |
| 04/30/2026 | 16:00:00 | 120 | 64 | 15:28:04 | 63 | 15:01:00 | 63 | 98 | 15:07:00 | 96 | 15:59:04 | 96.2 | 0 | 3.8 | 48 | 16 | 68 | 68 | 69 | 69 |
| 04/30/2026 | 17:00:00 | 120 | 64 | 16:47:00 | 63 | 16:18:03 | 63 | 97 | 16:47:01 | 96 | 16:11:05 | 96.6 | 0 | 2.8 | 65 | 6 | 68 | 68 | 69 | 69 |
| 04/30/2026 | 18:00:00 | 120 | 64 | 18:00:00 | 63 | 17:16:05 | 64 | 98 | 18:00:00 | 97 | 17:00:02 | 98 | 0 | 1.8 | 10 | 1 | 68 | 68 | 69 | 69 |
| 04/30/2026 | 19:00:00 | 120 | 64 | 18:00:01 | 62 | 18:58:03 | 62 | 98 | 18:00:01 | 97 | 18:53:02 | 96.9 | 0.02 | 1.8 | 19 | 0 | 68 | 68 | 69 | 69 |
| 04/30/2026 | 20:00:00 | 120 | 62 | 19:00:01 | 62 | 19:57:02 | 62 | 98 | 19:59:00 | 97 | 19:02:04 | 97.6 | 0.01 | 2.5 | 27 | 0 | 68 | 68 | 69 | 69 |
| 04/30/2026 | 21:00:00 | 120 | 62 | 20:00:02 | 61 | 20:59:05 | 61 | 98 | 20:03:05 | 97 | 20:59:05 | 96.8 | 0 | 3.3 | 46 | 0 | 68 | 68 | 69 | 69 |
| 04/30/2026 | 22:00:00 | 120 | 61 | 21:00:04 | 61 | 21:33:01 | 61 | 97 | 21:59:05 | 97 | 21:48:02 | 96.9 | 0.01 | 2.2 | 60 | 0 | 68 | 68 | 69 | 69 |
| 04/30/2026 | 23:00:00 | 120 | 61 | 22:17:01 | 60 | 22:55:00 | 60 | 98 | 22:59:05 | 97 | 22:01:05 | 98.1 | 0 | 1.3 | 67 | 0 | 68 | 68 | 69 | 69 |
| 05/01/2026 | 0:00:00 | 121 | 60 | 23:03:04 | 60 | 23:54:03 | 60 | 99 | 23:55:00 | 98 | 23:01:01 | 98.5 | 0.01 | 2.8 | 61 | 0 | 68 | 68 | 69 | 69 |
| 05/01/2026 | 1:00:00 | 121 | 60 | 0:17:00 | 59 | 0:59:02 | 59 | 99 | 0:53:01 | 99 | 0:00:03 | 98.8 | 0 | 3.9 | 2 | 0 | 68 | 68 | 69 | 69 |
| 05/01/2026 | 2:00:00 | 121 | 59 | 1:00:00 | 59 | 1:58:02 | 59 | 99 | 1:18:00 | 99 | 1:58:04 | 98.7 | 0 | 3.5 | 30 | 0 | 68 | 68 | 69 | 69 |
| 05/01/2026 | 3:00:00 | 121 | 59 | 2:00:00 | 58 | 2:57:05 | 58 | 99 | 2:00:00 | 98 | 2:59:00 | 97.8 | 0 | 3.8 | 30 | 0 | 68 | 68 | 69 | 69 |
| 05/01/2026 | 4:00:00 | 121 | 58 | 3:52:05 | 58 | 3:23:05 | 58 | 98 | 3:04:01 | 97 | 3:47:01 | 97.5 | 0 | 2.4 | 18 | 0 | 68 | 68 | 69 | 69 |
| 05/01/2026 | 5:00:00 | 121 | 58 | 4:08:01 | 57 | 4:57:01 | 57 | 98 | 4:51:01 | 97 | 4:01:01 | 97.9 | 0.01 | 2.1 | 18 | 0 | 68 | 68 | 69 | 68 |
| 05/01/2026 | 6:00:00 | 121 | 58 | 5:01:04 | 57 | 5:53:01 | 57 | 98 | 5:42:02 | 98 | 5:00:02 | 98.1 | 0 | 3.3 | 25 | 0 | 68 | 68 | 68 | 68 |
| 05/01/2026 | 7:00:00 | 121 | 57 | 6:57:04 | 57 | 6:05:02 | 57 | 98 | 6:01:02 | 98 | 6:52:04 | 98 | 0 | 2.9 | 46 | 2 | 68 | 67 | 68 | 68 |
| 05/01/2026 | 8:00:00 | 121 | 58 | 7:44:00 | 57 | 7:00:04 | 58 | 98 | 7:33:04 | 97 | 7:58:04 | 97.4 | 0.01 | 3.7 | 20 | 8 | 67 | 67 | 68 | 68 |
| 05/01/2026 | 9:00:00 | 121 | 59 | 8:12:00 | 58 | 8:00:02 | 58 | 98 | 8:01:02 | 96 | 8:58:02 | 96.3 | 0.01 | 4.3 | 5 | 10 | 67 | 67 | 68 | 68 |
| 05/01/2026 | 10:00:00 | 121 | 59 | 9:19:03 | 58 | 9:51:01 | 58 | 97 | 9:00:02 | 92 | 9:56:03 | 92.1 | 0 | 6.7 | 17 | 16 | 67 | 67 | 68 | 68 |
| 05/01/2026 | 11:00:00 | 121 | 58 | 10:00:04 | 55 | 10:59:05 | 55 | 95 | 10:38:02 | 89 | 10:15:01 | 91.2 | 0.02 | 5.7 | 44 | 14 | 67 | 67 | 68 | 68 |
| 05/01/2026 | 12:00:00 | 121 | 56 | 11:54:02 | 55 | 11:18:01 | 55 | 97 | 11:54:04 | 91 | 11:01:05 | 95.5 | 0.07 | 4.8 | 36 | 13 | 67 | 67 | 68 | 68 |
| 05/01/2026 | 13:00:00 | 121 | 55 | 12:27:02 | 54 | 12:47:04 | 55 | 96 | 12:27:02 | 95 | 12:12:02 | 96.1 | 0.04 | 4.9 | 16 | 11 | 67 | 67 | 68 | 68 |
| 05/01/2026 | 14:00:00 | 121 | 55 | 13:00:05 | 53 | 13:51:04 | 53 | 96 | 13:59:04 | 95 | 13:30:03 | 96.4 | 0.06 | 5.7 | 30 | 9 | 67 | 67 | 68 | 68 |
| 05/01/2026 | 15:00:00 | 121 | 53 | 14:00:01 | 52 | 14:59:05 | 52 | 97 | 14:50:03 | 96 | 14:01:00 | 96.5 | 0.14 | 4.8 | 41 | 4 | 67 | 67 | 68 | 68 |
| 05/01/2026 | 16:00:00 | 121 | 52 | 15:00:01 | 51 | 15:56:01 | 51 | 98 | 15:57:05 | 96 | 15:16:01 | 97.5 | 0.18 | 3.5 | 40 | 2 | 66 | 66 | 68 | 67 |
| 05/01/2026 | 17:00:00 | 121 | 51 | 16:16:03 | 50 | 16:43:02 | 50 | 98 | 16:16:03 | 97 | 16:41:01 | 97.5 | 0.3 | 6.7 | 72 | 1 | 66 | 66 | 67 | 67 |
| 05/01/2026 | 18:00:00 | 121 | 50 | 17:33:05 | 50 | 17:00:00 | 50 | 99 | 17:58:03 | 98 | 17:00:00 | 98.6 | 0.12 | 3.7 | 41 | 1 | 65 | 65 | 67 | 67 |
| 05/01/2026 | 19:00:00 | 121 | 51 | 18:52:05 | 50 | 18:34:00 | 51 | 99 | 18:53:02 | 99 | 18:04:01 | 99.1 | 0.19 | 2.7 | 5 | 0 | 65 | 65 | 66 | 66 |
| 05/01/2026 | 20:00:00 | 121 | 51 | 19:56:02 | 50 | 19:00:02 | 51 | 100 | 19:56:04 | 99 | 19:00:04 | 99.5 | 0.07 | 1.5 | 9 | 0 | 64 | 64 | 66 | 66 |
| 05/01/2026 | 21:00:00 | 121 | 52 | 20:45:02 | 51 | 20:00:01 | 52 | 100 | 20:54:00 | 100 | 20:00:01 | 99.6 | 0.02 | 2.4 | 52 | 0 | 64 | 64 | 66 | 66 |
| 05/01/2026 | 22:00:00 | 121 | 52 | 21:48:02 | 52 | 21:00:05 | 52 | 100 | 21:18:04 | 100 | 21:53:03 | 99.6 | 0.02 | 1.0 | 92 | 0 | 64 | 64 | 66 | 66 |
| 05/01/2026 | 23:00:00 | 121 | 53 | 22:34:03 | 52 | 22:00:00 | 52 | 100 | 22:34:03 | 100 | 22:17:01 | 99.7 | 0.02 | 1.9 | 353 | 0 | 64 | 64 | 66 | 66 |
| 05/02/2026 | 0:00:00 | 122 | 52 | 23:58:02 | 52 | 23:20:05 | 52 | 100 | 23:49:01 | 100 | 23:14:01 | 99.7 | 0.03 | 2.8 | 353 | 0 | 64 | 64 | 66 | 65 |
| 05/02/2026 | 1:00:00 | 122 | 53 | 0:34:00 | 52 | 0:12:04 | 52 | 100 | 0:29:03 | 100 | 0:56:00 | 99.6 | 0.03 | 2.4 | 354 | 0 | 64 | 64 | 65 | 65 |
| 05/02/2026 | 2:00:00 | 122 | 53 | 1:49:02 | 52 | 1:00:00 | 53 | 100 | 1:41:02 | 100 | 1:00:00 | 99.8 | 0.01 | 1.3 | 333 | 0 | 64 | 64 | 65 | 65 |
| 05/02/2026 | 3:00:00 | 122 | 53 | 2:55:04 | 53 | 2:02:04 | 53 | 100 | 2:37:02 | 100 | 2:03:02 | 100 | 0 | 0.5 | 4 | 0 | 64 | 64 | 65 | 65 |
| 05/02/2026 | 4:00:00 | 122 | 54 | 3:31:01 | 53 | 3:58:05 | 53 | 100 | 3:00:05 | 100 | 3:18:04 | 100 | 0 | 1.6 | 308 | 0 | 64 | 64 | 65 | 65 |
| 05/02/2026 | 5:00:00 | 122 | 53 | 4:08:01 | 53 | 4:37:03 | 53 | 100 | 4:00:02 | 100 | 4:01:00 | 100 | 0 | 4.2 | 320 | 0 | 64 | 64 | 65 | 65 |
| 05/02/2026 | 6:00:00 | 122 | 53 | 5:59:01 | 53 | 5:00:00 | 53 | 100 | 5:00:00 | 100 | 5:00:00 | 100 | 0 | 3.3 | 343 | 2 | 64 | 64 | 65 | 65 |
| 05/02/2026 | 7:00:00 | 122 | 57 | 6:59:04 | 53 | 6:00:00 | 57 | 100 | 6:00:00 | 93 | 6:52:02 | 93.4 | 0 | 3.4 | 9 | 13 | 64 | 64 | 65 | 65 |
| 05/02/2026 | 8:00:00 | 122 | 60 | 7:52:01 | 56 | 7:01:03 | 59 | 93 | 7:00:00 | 75 | 7:59:00 | 77.23 | 0 | 5.8 | 5 | 37 | 64 | 64 | 65 | 65 |
| 05/02/2026 | 9:00:00 | 122 | 63 | 8:55:01 | 59 | 8:05:01 | 62 | 78 | 8:07:05 | 62 | 9:00:00 | 61.54 | 0.01 | 7.8 | 18 | 54 | 64 | 64 | 65 | 65 |
| 05/02/2026 | 10:00:00 | 122 | 65 | 9:55:05 | 62 | 9:01:02 | 64 | 69 | 9:07:05 | 49 | 9:40:00 | 51.13 | 0 | 9.4 | 19 | 68 | 64 | 64 | 65 | 65 |
| 05/02/2026 | 11:00:00 | 122 | 68 | 10:57:01 | 64 | 10:02:01 | 67 | 59 | 10:07:04 | 45 | 10:57:03 | 49.33 | 0 | 8.1 | 29 | 78 | 64 | 64 | 65 | 65 |
| 05/02/2026 | 12:00:00 | 122 | 68 | 11:47:01 | 66 | 11:21:05 | 68 | 54 | 11:43:04 | 41 | 11:54:00 | 47.04 | 0 | 9.8 | 5 | 83 | 65 | 65 | 66 | 66 |
| 05/02/2026 | 13:00:00 | 122 | 69 | 12:23:05 | 67 | 12:13:04 | 69 | 56 | 12:47:01 | 42 | 12:04:02 | 48.9 | 0 | 8.6 | 5 | 83 | 65 | 65 | 66 | 66 |
| 05/02/2026 | 14:00:00 | 122 | 70 | 13:47:05 | 68 | 13:39:02 | 70 | 55 | 13:07:02 | 39 | 13:42:04 | 45.64 | 0 | 9.3 | 353 | 78 | 66 | 66 | 66 | 67 |
| 05/02/2026 | 15:00:00 | 122 | 71 | 14:59:02 | 69 | 14:24:05 | 70 | 52 | 14:04:01 | 38 | 14:35:05 | 41.01 | 0 | 8.5 | 348 | 68 | 66 | 66 | 67 | 67 |
| 05/02/2026 | 16:00:00 | 122 | 70 | 15:00:00 | 69 | 15:58:04 | 69 | 49 | 15:36:03 | 38 | 15:11:00 | 46.03 | 0 | 9.9 | 339 | 53 | 66 | 67 | 67 | 67 |
| 05/02/2026 | 17:00:00 | 122 | 70 | 16:02:00 | 68 | 17:00:00 | 68 | 50 | 16:30:04 | 41 | 16:08:00 | 43.8 | 0 | 9.2 | 342 | 34 | 67 | 66 | 67 | 67 |
| 05/02/2026 | 18:00:00 | 122 | 68 | 17:00:01 | 66 | 17:59:05 | 66 | 52 | 17:59:04 | 41 | 17:01:00 | 51.21 | 0 | 7.5 | 345 | 17 | 66 | 66 | 67 | 67 |
| 05/02/2026 | 19:00:00 | 122 | 66 | 18:05:01 | 58 | 18:59:04 | 58 | 79 | 18:51:02 | 49 | 18:04:00 | 75.96 | 0 | 1.3 | 331 | 3 | 66 | 66 | 67 | 67 |
| 05/02/2026 | 20:00:00 | 122 | 58 | 19:00:01 | 54 | 19:59:05 | 54 | 89 | 19:59:03 | 74 | 19:03:01 | 88.4 | 0 | 0.0 | 291 | 0 | 66 | 66 | 67 | 67 |
| 05/02/2026 | 21:00:00 | 122 | 54 | 20:00:00 | 51 | 20:59:01 | 51 | 91 | 20:46:03 | 85 | 20:59:01 | 85.1 | 0 | 0.0 | 0 | 0 | 66 | 65 | 67 | 67 |
| 05/02/2026 | 22:00:00 | 122 | 52 | 21:03:05 | 50 | 21:56:04 | 50 | 92 | 21:42:00 | 85 | 21:00:00 | 90.5 | 0 | 0.0 | 0 | 0 | 65 | 65 | 66 | 66 |
| 05/02/2026 | 23:00:00 | 122 | 50 | 22:14:04 | 49 | 22:43:02 | 50 | 96 | 22:54:00 | 91 | 22:01:00 | 96 | 0 | 0.1 | 198 | 0 | 65 | 65 | 66 | 66 |
| 05/03/2026 | 0:00:00 | 123 | 50 | 23:00:00 | 48 | 23:51:04 | 49 | 97 | 23:29:00 | 96 | 23:00:04 | 96.5 | 0 | 0.0 | 0 | 0 | 64 | 64 | 66 | 66 |
| 05/03/2026 | 1:00:00 | 123 | 49 | 0:32:00 | 48 | 0:59:00 | 48 | 97 | 0:25:05 | 96 | 0:59:00 | 95.8 | 0 | 0.0 | 0 | 0 | 64 | 64 | 65 | 65 |
| 05/03/2026 | 2:00:00 | 123 | 49 | 1:20:02 | 47 | 1:59:05 | 47 | 97 | 1:20:02 | 96 | 1:06:01 | 96.9 | 0 | 0.0 | 283 | 0 | 64 | 64 | 65 | 65 |
| 05/03/2026 | 3:00:00 | 123 | 48 | 2:08:03 | 47 | 2:59:04 | 47 | 98 | 2:36:01 | 97 | 2:00:00 | 97.6 | 0 | 0.0 | 0 | 0 | 63 | 63 | 65 | 65 |
| 05/03/2026 | 4:00:00 | 123 | 48 | 3:28:01 | 46 | 3:58:01 | 47 | 99 | 3:28:04 | 97 | 3:03:02 | 98.3 | 0 | 0.0 | 323 | 0 | 63 | 63 | 65 | 65 |
| 05/03/2026 | 5:00:00 | 123 | 47 | 4:20:03 | 46 | 4:51:02 | 46 | 99 | 4:58:05 | 98 | 4:25:03 | 98.7 | 0 | 0.0 | 324 | 0 | 63 | 63 | 64 | 64 |
| 05/03/2026 | 6:00:00 | 123 | 51 | 6:00:00 | 45 | 5:17:00 | 51 | 99 | 5:57:04 | 98 | 5:17:02 | 99.1 | 0 | 0.1 | 198 | 4 | 63 | 63 | 64 | 64 |
| 05/03/2026 | 7:00:00 | 123 | 59 | 6:58:04 | 51 | 6:03:04 | 59 | 99 | 6:02:01 | 70 | 6:59:04 | 71.96 | 0 | 0.9 | 315 | 21 | 62 | 62 | 64 | 64 |
| 05/03/2026 | 8:00:00 | 123 | 64 | 7:59:05 | 59 | 7:00:01 | 64 | 83 | 7:10:01 | 64 | 7:56:04 | 68.49 | 0 | 2.5 | 3 | 37 | 62 | 63 | 64 | 64 |
| 05/03/2026 | 9:00:00 | 123 | 68 | 8:57:03 | 64 | 8:05:04 | 67 | 69 | 8:14:05 | 57 | 8:58:01 | 59.67 | 0 | 2.3 | 327 | 54 | 63 | 63 | 64 | 64 |
| 05/03/2026 | 10:00:00 | 123 | 70 | 9:52:02 | 66 | 9:09:00 | 69 | 69 | 9:23:03 | 54 | 9:52:05 | 56.95 | 0 | 3.8 | 279 | 68 | 63 | 64 | 64 | 64 |
| 05/03/2026 | 11:00:00 | 123 | 72 | 10:59:03 | 69 | 10:00:00 | 72 | 66 | 10:35:03 | 46 | 10:57:00 | 50.6 | 0 | 5.1 | 268 | 79 | 64 | 65 | 65 | 65 |
| 05/03/2026 | 12:00:00 | 123 | 75 | 11:55:04 | 71 | 11:16:05 | 74 | 55 | 11:40:04 | 39 | 11:30:02 | 49.07 | 0 | 5.4 | 291 | 84 | 65 | 66 | 65 | 66 |
| 05/03/2026 | 13:00:00 | 123 | 75 | 12:08:00 | 72 | 12:25:02 | 73 | 57 | 12:40:01 | 39 | 12:09:03 | 49.46 | 0 | 5.9 | 282 | 80 | 66 | 67 | 66 | 67 |
| 05/03/2026 | 14:00:00 | 123 | 75 | 13:54:03 | 73 | 13:12:04 | 74 | 54 | 13:07:05 | 39 | 13:23:00 | 47.67 | 0 | 6.6 | 318 | 77 | 67 | 68 | 67 | 67 |
| 05/03/2026 | 15:00:00 | 123 | 76 | 14:27:04 | 74 | 14:04:01 | 75 | 53 | 14:40:05 | 40 | 14:28:01 | 44.19 | 0 | 5.4 | 319 | 69 | 68 | 68 | 68 | 68 |
| 05/03/2026 | 16:00:00 | 123 | 77 | 15:21:00 | 74 | 15:58:05 | 74 | 54 | 15:59:01 | 41 | 15:02:03 | 49.2 | 0 | 5.0 | 310 | 53 | 68 | 68 | 68 | 68 |
| 05/03/2026 | 17:00:00 | 123 | 75 | 16:04:05 | 72 | 16:32:02 | 75 | 60 | 16:29:03 | 45 | 16:07:02 | 50.52 | 0 | 3.6 | 286 | 26 | 68 | 68 | 68 | 68 |
| 05/03/2026 | 18:00:00 | 123 | 75 | 17:10:02 | 70 | 17:39:03 | 71 | 64 | 17:50:00 | 46 | 17:06:02 | 59.83 | 0 | 2.8 | 255 | 16 | 68 | 68 | 68 | 68 |
| 05/03/2026 | 19:00:00 | 123 | 71 | 18:03:02 | 63 | 18:59:03 | 63 | 85 | 18:58:04 | 57 | 18:02:02 | 84.3 | 0 | 1.1 | 283 | 3 | 68 | 68 | 68 | 68 |
| 05/03/2026 | 20:00:00 | 123 | 63 | 19:01:05 | 58 | 19:59:04 | 58 | 90 | 19:42:05 | 84 | 19:00:00 | 89.2 | 0 | 0.1 | 219 | 0 | 68 | 68 | 68 | 68 |
| 05/03/2026 | 21:00:00 | 123 | 58 | 20:00:03 | 57 | 20:49:03 | 57 | 94 | 21:00:00 | 89 | 20:00:00 | 94.3 | 0 | 0.0 | 0 | 0 | 67 | 67 | 68 | 68 |
| 05/03/2026 | 22:00:00 | 123 | 57 | 21:01:03 | 55 | 21:58:02 | 55 | 96 | 22:00:00 | 94 | 21:00:00 | 96.3 | 0 | 0.0 | 202 | 0 | 67 | 67 | 67 | 67 |
| 05/03/2026 | 23:00:00 | 123 | 56 | 22:14:00 | 55 | 22:28:01 | 55 | 98 | 22:50:03 | 96 | 22:00:00 | 97.3 | 0 | 0.0 | 277 | 0 | 66 | 66 | 67 | 67 |
| 05/04/2026 | 0:00:00 | 124 | 56 | 23:07:00 | 54 | 23:59:03 | 54 | 98 | 23:38:04 | 97 | 23:22:04 | 97.3 | 0 | 0.0 | 0 | 0 | 66 | 66 | 67 | 67 |
| 05/04/2026 | 1:00:00 | 124 | 54 | 0:36:01 | 52 | 0:59:03 | 52 | 99 | 0:36:02 | 97 | 0:00:01 | 97.6 | 0 | 0.0 | 0 | 0 | 66 | 65 | 67 | 66 |
| 05/04/2026 | 2:00:00 | 124 | 53 | 1:47:03 | 52 | 1:55:05 | 52 | 99 | 1:26:00 | 98 | 1:00:00 | 98.5 | 0 | 0.0 | 0 | 0 | 65 | 65 | 66 | 66 |
| 05/04/2026 | 3:00:00 | 124 | 54 | 2:27:00 | 52 | 2:10:02 | 52 | 99 | 2:19:03 | 95 | 2:33:02 | 96.9 | 0 | 0.5 | 212 | 0 | 65 | 65 | 66 | 66 |
| 05/04/2026 | 4:00:00 | 124 | 52 | 3:59:05 | 51 | 3:25:02 | 52 | 97 | 3:01:05 | 95 | 3:58:00 | 95.4 | 0 | 0.0 | 191 | 0 | 65 | 64 | 66 | 66 |
| 05/04/2026 | 5:00:00 | 124 | 53 | 4:19:02 | 50 | 4:59:04 | 50 | 97 | 4:55:02 | 92 | 4:20:05 | 95.7 | 0 | 0.3 | 253 | 0 | 64 | 64 | 66 | 65 |
| 05/04/2026 | 6:00:00 | 124 | 55 | 6:00:00 | 50 | 5:08:01 | 55 | 98 | 5:48:03 | 96 | 5:00:01 | 97.2 | 0 | 0.3 | 187 | 4 | 64 | 64 | 65 | 65 |
| 05/04/2026 | 7:00:00 | 124 | 63 | 6:45:02 | 55 | 6:00:00 | 63 | 97 | 6:00:01 | 74 | 6:59:05 | 74.46 | 0 | 2.2 | 183 | 20 | 64 | 64 | 65 | 65 |
| 05/04/2026 | 8:00:00 | 124 | 67 | 7:59:05 | 63 | 7:00:00 | 67 | 77 | 7:07:03 | 66 | 7:57:02 | 69.67 | 0 | 4.9 | 244 | 38 | 64 | 64 | 65 | 65 |
| 05/04/2026 | 9:00:00 | 124 | 69 | 8:59:04 | 66 | 8:05:03 | 69 | 72 | 8:12:01 | 61 | 8:50:05 | 63.51 | 0 | 6.1 | 248 | 50 | 64 | 64 | 65 | 65 |
| 05/04/2026 | 10:00:00 | 124 | 74 | 9:47:04 | 69 | 9:00:00 | 73 | 70 | 9:07:04 | 55 | 9:56:01 | 58.81 | 0 | 6.2 | 225 | 68 | 65 | 65 | 65 | 65 |
| 05/04/2026 | 11:00:00 | 124 | 76 | 10:49:00 | 73 | 10:00:01 | 75 | 64 | 10:45:05 | 50 | 10:56:05 | 53.56 | 0 | 6.9 | 201 | 78 | 65 | 66 | 66 | 66 |
| 05/04/2026 | 12:00:00 | 124 | 76 | 11:42:05 | 75 | 11:06:00 | 76 | 59 | 11:37:04 | 46 | 11:05:03 | 50.8 | 0 | 7.5 | 177 | 82 | 66 | 67 | 66 | 67 |
| 05/04/2026 | 13:00:00 | 124 | 78 | 12:57:05 | 75 | 12:11:05 | 77 | 58 | 12:02:05 | 45 | 12:46:01 | 47.65 | 0 | 7.6 | 196 | 82 | 68 | 68 | 67 | 68 |
| 05/04/2026 | 14:00:00 | 124 | 79 | 13:56:05 | 76 | 13:02:05 | 78 | 56 | 13:07:00 | 45 | 13:36:02 | 47.79 | 0 | 8.2 | 189 | 77 | 69 | 69 | 68 | 68 |
| 05/04/2026 | 15:00:00 | 124 | 79 | 14:11:01 | 77 | 14:02:05 | 78 | 57 | 14:03:05 | 44 | 14:22:02 | 52.69 | 0 | 7.7 | 197 | 68 | 69 | 70 | 68 | 69 |
| 05/04/2026 | 16:00:00 | 124 | 79 | 15:26:01 | 77 | 15:19:01 | 78 | 56 | 15:00:02 | 45 | 15:19:01 | 52.74 | 0 | 7.7 | 186 | 53 | 70 | 70 | 69 | 69 |
| 05/04/2026 | 17:00:00 | 124 | 79 | 16:00:03 | 76 | 16:59:05 | 76 | 55 | 16:39:04 | 46 | 16:01:01 | 49.7 | 0 | 8.4 | 194 | 35 | 70 | 70 | 69 | 69 |
| 05/04/2026 | 18:00:00 | 124 | 76 | 17:19:03 | 73 | 18:00:00 | 73 | 58 | 17:59:01 | 49 | 17:21:04 | 57.23 | 0 | 6.4 | 198 | 16 | 69 | 69 | 69 | 69 |
| 05/04/2026 | 19:00:00 | 124 | 73 | 18:00:02 | 67 | 19:00:00 | 67 | 70 | 18:59:02 | 55 | 18:08:05 | 66.88 | 0 | 3.0 | 187 | 2 | 69 | 69 | 69 | 69 |
| 05/04/2026 | 20:00:00 | 124 | 67 | 19:00:01 | 63 | 20:00:00 | 63 | 78 | 19:26:04 | 66 | 19:00:01 | 75.2 | 0 | 1.0 | 207 | 0 | 69 | 68 | 69 | 69 |
| 05/04/2026 | 21:00:00 | 124 | 65 | 20:18:03 | 62 | 20:44:03 | 63 | 79 | 20:41:02 | 71 | 20:14:05 | 76.25 | 0 | 1.9 | 154 | 0 | 68 | 68 | 68 | 68 |
| 05/04/2026 | 22:00:00 | 124 | 63 | 21:11:02 | 62 | 21:50:00 | 62 | 79 | 21:49:04 | 75 | 21:12:05 | 78.23 | 0 | 3.3 | 160 | 0 | 68 | 67 | 68 | 68 |
| 05/04/2026 | 23:00:00 | 124 | 62 | 22:00:00 | 61 | 22:45:05 | 61 | 80 | 22:15:01 | 78 | 22:00:00 | 78.68 | 0 | 2.8 | 156 | 0 | 67 | 67 | 68 | 68 |
| 05/05/2026 | 0:00:00 | 125 | 62 | 23:08:01 | 60 | 23:59:05 | 60 | 80 | 23:59:04 | 77 | 23:11:02 | 80.1 | 0 | 3.8 | 171 | 0 | 67 | 67 | 68 | 67 |
| 05/05/2026 | 1:00:00 | 125 | 60 | 0:00:00 | 59 | 0:34:05 | 59 | 85 | 0:35:04 | 80 | 0:00:01 | 84.3 | 0 | 2.7 | 171 | 0 | 67 | 66 | 67 | 67 |
| 05/05/2026 | 2:00:00 | 125 | 59 | 1:00:00 | 58 | 1:20:04 | 58 | 87 | 1:59:01 | 84 | 1:00:01 | 87 | 0 | 2.8 | 164 | 0 | 66 | 66 | 67 | 67 |
| 05/05/2026 | 3:00:00 | 125 | 58 | 2:00:01 | 56 | 2:57:00 | 56 | 91 | 2:58:02 | 87 | 2:00:01 | 91 | 0 | 2.7 | 169 | 0 | 66 | 66 | 67 | 67 |
| 05/05/2026 | 4:00:00 | 125 | 57 | 3:03:04 | 56 | 3:59:05 | 56 | 93 | 3:57:05 | 91 | 3:04:04 | 92.5 | 0 | 2.7 | 179 | 0 | 66 | 66 | 67 | 67 |
| 05/05/2026 | 5:00:00 | 125 | 56 | 4:49:05 | 56 | 4:30:04 | 56 | 94 | 4:45:05 | 93 | 4:00:00 | 93.5 | 0 | 2.5 | 171 | 0 | 66 | 66 | 67 | 66 |
| 05/05/2026 | 6:00:00 | 125 | 57 | 5:59:04 | 56 | 5:12:05 | 57 | 94 | 5:19:00 | 94 | 5:00:00 | 93.6 | 0 | 2.6 | 171 | 2 | 65 | 65 | 66 | 66 |
| 05/05/2026 | 7:00:00 | 125 | 62 | 6:59:05 | 57 | 6:00:00 | 62 | 94 | 6:00:01 | 88 | 6:59:01 | 88.1 | 0 | 3.2 | 174 | 12 | 65 | 65 | 66 | 66 |
| 05/05/2026 | 8:00:00 | 125 | 68 | 8:00:00 | 62 | 7:00:00 | 68 | 88 | 7:00:04 | 82 | 7:48:01 | 82.7 | 0 | 5.4 | 175 | 31 | 65 | 65 | 66 | 66 |
| 05/05/2026 | 9:00:00 | 125 | 73 | 8:56:01 | 68 | 8:00:02 | 73 | 83 | 8:05:04 | 74 | 8:54:02 | 74.39 | 0 | 6.8 | 178 | 44 | 66 | 66 | 66 | 66 |
| 05/05/2026 | 10:00:00 | 125 | 75 | 9:59:01 | 73 | 9:01:05 | 75 | 79 | 9:50:00 | 73 | 9:56:01 | 75.55 | 0 | 9.1 | 188 | 43 | 66 | 66 | 66 | 67 |
| 05/05/2026 | 11:00:00 | 125 | 78 | 11:00:00 | 74 | 10:02:01 | 78 | 76 | 10:04:05 | 64 | 10:56:00 | 67.58 | 0 | 10.0 | 178 | 74 | 67 | 67 | 67 | 67 |
| 05/05/2026 | 12:00:00 | 125 | 80 | 11:59:00 | 77 | 11:08:00 | 80 | 72 | 11:18:00 | 64 | 11:02:04 | 67.45 | 0 | 8.5 | 173 | 73 | 68 | 68 | 67 | 68 |
| 05/05/2026 | 13:00:00 | 125 | 81 | 12:21:05 | 78 | 12:57:00 | 78 | 71 | 12:59:02 | 63 | 12:24:01 | 68.7 | 0 | 8.8 | 181 | 47 | 69 | 69 | 68 | 68 |
| 05/05/2026 | 14:00:00 | 125 | 79 | 13:49:01 | 78 | 13:00:01 | 78 | 73 | 13:39:02 | 68 | 13:11:01 | 70.5 | 0 | 7.6 | 183 | 27 | 69 | 69 | 68 | 69 |
| 05/05/2026 | 15:00:00 | 125 | 79 | 14:32:03 | 77 | 14:57:02 | 77 | 76 | 14:59:05 | 70 | 14:00:01 | 75.35 | 0 | 6.4 | 178 | 19 | 69 | 69 | 69 | 69 |
| 05/05/2026 | 16:00:00 | 125 | 78 | 15:24:01 | 77 | 15:55:00 | 77 | 78 | 15:58:01 | 73 | 15:16:02 | 77.1 | 0 | 5.0 | 180 | 12 | 69 | 69 | 69 | 69 |
| 05/05/2026 | 17:00:00 | 125 | 77 | 16:30:03 | 77 | 16:59:05 | 77 | 80 | 16:45:05 | 75 | 16:12:02 | 78.33 | 0 | 4.5 | 160 | 11 | 69 | 69 | 69 | 69 |
| 05/05/2026 | 18:00:00 | 125 | 77 | 17:17:05 | 76 | 17:58:05 | 76 | 81 | 17:58:03 | 77 | 17:19:01 | 80.3 | 0 | 5.3 | 158 | 8 | 69 | 69 | 69 | 69 |
| 05/05/2026 | 19:00:00 | 125 | 76 | 18:00:00 | 74 | 18:59:02 | 74 | 83 | 19:00:00 | 80 | 18:01:05 | 83.3 | 0 | 4.6 | 160 | 1 | 69 | 69 | 69 | 69 |
| 05/05/2026 | 20:00:00 | 125 | 74 | 19:07:04 | 73 | 19:59:04 | 73 | 85 | 19:59:05 | 83 | 19:07:01 | 85.3 | 0 | 6.0 | 161 | 0 | 69 | 69 | 69 | 69 |
| 05/05/2026 | 21:00:00 | 125 | 73 | 20:00:00 | 73 | 20:37:01 | 73 | 88 | 20:57:04 | 85 | 20:00:00 | 87.7 | 0 | 6.1 | 160 | 0 | 69 | 69 | 69 | 69 |
| 05/05/2026 | 22:00:00 | 125 | 73 | 21:00:00 | 72 | 21:59:01 | 72 | 91 | 21:59:05 | 88 | 21:00:03 | 90.7 | 0 | 6.6 | 162 | 0 | 69 | 69 | 69 | 69 |
| 05/05/2026 | 23:00:00 | 125 | 72 | 22:00:01 | 71 | 22:58:04 | 71 | 93 | 22:57:02 | 91 | 22:00:02 | 93.2 | 0 | 5.7 | 168 | 0 | 69 | 69 | 69 | 69 |
| 05/06/2026 | 0:00:00 | 126 | 71 | 23:00:01 | 70 | 23:59:03 | 70 | 94 | 23:57:04 | 93 | 23:00:05 | 94 | 0 | 6.0 | 170 | 0 | 69 | 69 | 69 | 69 |
| 05/06/2026 | 1:00:00 | 126 | 70 | 0:00:01 | 69 | 0:51:02 | 69 | 96 | 0:52:05 | 94 | 0:00:05 | 95.4 | 0 | 6.3 | 176 | 0 | 69 | 69 | 69 | 69 |
| 05/06/2026 | 2:00:00 | 126 | 70 | 1:56:01 | 69 | 1:00:01 | 70 | 96 | 1:08:05 | 93 | 1:59:04 | 93.2 | 0 | 8.0 | 186 | 0 | 69 | 69 | 69 | 69 |
| 05/06/2026 | 3:00:00 | 126 | 71 | 2:32:02 | 70 | 2:07:03 | 70 | 93 | 2:08:03 | 92 | 2:33:02 | 92.5 | 0 | 8.3 | 204 | 0 | 68 | 68 | 69 | 69 |
| 05/06/2026 | 4:00:00 | 126 | 71 | 3:00:00 | 70 | 3:59:02 | 70 | 93 | 3:59:00 | 92 | 3:00:02 | 93.3 | 0 | 5.7 | 197 | 0 | 68 | 68 | 69 | 69 |
| 05/06/2026 | 5:00:00 | 126 | 70 | 4:00:01 | 69 | 4:48:05 | 69 | 96 | 4:59:05 | 93 | 4:00:04 | 96 | 0 | 4.3 | 171 | 0 | 68 | 68 | 68 | 68 |
| 05/06/2026 | 6:00:00 | 126 | 70 | 5:59:04 | 69 | 5:13:04 | 70 | 97 | 5:23:01 | 96 | 5:00:03 | 96.2 | 0 | 3.3 | 185 | 1 | 68 | 68 | 68 | 68 |
| 05/06/2026 | 7:00:00 | 126 | 71 | 6:55:03 | 70 | 6:00:04 | 71 | 96 | 6:01:04 | 96 | 6:53:02 | 95.9 | 0 | 1.3 | 157 | 2 | 68 | 68 | 68 | 68 |
| 05/06/2026 | 8:00:00 | 126 | 71 | 7:56:05 | 71 | 7:07:01 | 71 | 97 | 7:57:00 | 96 | 7:06:05 | 97 | 0.01 | 1.4 | 131 | 3 | 68 | 68 | 68 | 68 |
| 05/06/2026 | 9:00:00 | 126 | 72 | 8:54:03 | 71 | 8:00:00 | 72 | 98 | 8:48:01 | 97 | 8:00:00 | 97.2 | 0 | 2.9 | 152 | 9 | 68 | 69 | 68 | 69 |
| 05/06/2026 | 10:00:00 | 126 | 74 | 9:47:01 | 72 | 9:00:00 | 74 | 98 | 9:06:00 | 95 | 9:54:05 | 95.4 | 0 | 3.7 | 164 | 19 | 69 | 69 | 69 | 69 |
| Average | 64.98 | 63.06 | 63.96 | 88.11 | 82.86 | 85.46 | 0.03 | 4.18 | 15.99 | 67.47 | 67.47 | 68.03 | 68.03 | |||||||
| Total | 5.15 |